Time;durP1;ratioP1;P1;durP2;ratioP2;P2;SDS_P1;SDS_P2;PMS_P1;PMS_P2;Temp;Humidity;BMP_temperature;BMP_pressure;BME280_temperature;BME280_humidity;BME280_pressure;Samples;Min_cycle;Max_cycle;Signal;HPM_P1;HPM_P2
2021/05/13 00:00:36;;;;;;;6.38;4.90;;;13.90;99.90;;;;;;4845095;29;20411;-74
2021/05/13 00:03:01;;;;;;;6.40;4.90;;;13.90;99.90;;;;;;4862316;29;20406;-76
2021/05/13 00:05:27;;;;;;;5.35;4.85;;;14.00;99.90;;;;;;4881886;29;20425;-78
2021/05/13 00:07:53;;;;;;;4.40;4.05;;;14.00;99.90;;;;;;4879476;29;20865;-76
2021/05/13 00:10:20;;;;;;;4.88;4.38;;;14.00;99.90;;;;;;4876797;29;20478;-77
2021/05/13 00:12:51;;;;;;;4.97;4.57;;;14.00;99.90;;;;;;4875765;29;20872;-81
2021/05/13 00:15:20;;;;;;;5.85;5.25;;;14.10;99.90;;;;;;4891714;29;20804;-75
2021/05/13 00:17:45;;;;;;;5.18;4.70;;;14.10;99.90;;;;;;4913160;29;20396;-78
2021/05/13 00:20:14;;;;;;;5.10;4.60;;;14.10;99.90;;;;;;4898635;29;20774;-75
2021/05/13 00:22:39;;;;;;;4.30;3.90;;;14.10;99.90;;;;;;4914290;29;20403;-77
2021/05/13 00:25:06;;;;;;;4.40;4.00;;;14.10;99.90;;;;;;4916164;29;20917;-75
2021/05/13 00:27:32;;;;;;;4.43;4.03;;;14.10;99.90;;;;;;4879156;29;20415;-77
2021/05/13 00:29:57;;;;;;;4.33;3.83;;;14.20;99.90;;;;;;4845656;29;20398;-75
2021/05/13 00:32:23;;;;;;;4.60;4.15;;;14.20;99.90;;;;;;4876018;29;20411;-75
2021/05/13 00:34:49;;;;;;;5.50;4.43;;;14.20;99.90;;;;;;4844779;29;20410;-76
2021/05/13 00:37:14;;;;;;;4.72;4.32;;;14.20;99.90;;;;;;4860339;29;20403;-73
2021/05/13 00:39:40;;;;;;;4.23;3.80;;;14.20;99.90;;;;;;4876195;29;20405;-74
2021/05/13 00:42:06;;;;;;;5.07;4.57;;;14.20;99.90;;;;;;4846245;29;20407;-76
2021/05/13 00:44:35;;;;;;;5.05;4.60;;;14.10;99.90;;;;;;4829908;29;20442;-75
2021/05/13 00:47:01;;;;;;;4.30;3.90;;;14.10;99.90;;;;;;4844791;29;20529;-75
2021/05/13 00:49:27;;;;;;;5.22;3.90;;;14.10;99.90;;;;;;4875656;29;20813;-75
2021/05/13 00:51:53;;;;;;;4.47;4.07;;;14.10;99.90;;;;;;4878644;29;20749;-77
2021/05/13 00:54:18;;;;;;;4.07;3.72;;;14.00;99.90;;;;;;4859873;29;20403;-77
2021/05/13 00:56:44;;;;;;;4.30;3.90;;;14.00;99.90;;;;;;4903585;29;20418;-73
2021/05/13 00:59:11;;;;;;;3.67;3.40;;;14.00;99.90;;;;;;4899201;29;20398;-74
2021/05/13 01:04:16;;;;;;;3.60;3.30;;;13.90;99.90;;;;;;4880184;29;20473;-78
2021/05/13 01:06:42;;;;;;;3.40;3.10;;;13.80;99.90;;;;;;4894093;29;20405;-75
2021/05/13 01:09:11;;;;;;;3.70;3.40;;;13.90;99.90;;;;;;4879213;29;20409;-76
2021/05/13 01:11:42;;;;;;;3.95;3.60;;;13.90;99.90;;;;;;4895128;29;20406;-75
2021/05/13 01:16:55;;;;;;;3.35;3.05;;;13.90;99.90;;;;;;4893951;29;20401;-75
2021/05/13 01:19:21;;;;;;;4.20;3.78;;;13.80;99.90;;;;;;4878926;29;20413;-76
2021/05/13 01:21:46;;;;;;;3.77;3.47;;;13.90;99.90;;;;;;4894275;29;20976;-75
2021/05/13 01:24:12;;;;;;;3.80;3.50;;;13.90;99.90;;;;;;4893841;29;20419;-76
2021/05/13 01:26:42;;;;;;;4.05;3.75;;;13.90;99.90;;;;;;4878831;29;20660;-76
2021/05/13 01:29:07;;;;;;;4.23;3.83;;;13.80;99.90;;;;;;4878346;29;20417;-74
2021/05/13 01:31:33;;;;;;;5.40;3.72;;;13.80;99.90;;;;;;4894194;29;20838;-77
2021/05/13 01:33:59;;;;;;;4.07;3.37;;;13.70;99.90;;;;;;4882227;29;20480;-74
2021/05/13 01:36:24;;;;;;;4.20;3.80;;;13.70;99.90;;;;;;4883585;29;20407;-79
2021/05/13 01:38:50;;;;;;;5.57;3.90;;;13.70;99.90;;;;;;4845028;29;20460;-78
2021/05/13 01:41:16;;;;;;;5.63;3.95;;;13.60;99.90;;;;;;4860345;29;20449;-76
2021/05/13 01:43:41;;;;;;;3.30;3.00;;;13.50;99.90;;;;;;4875640;29;20411;-75
2021/05/13 01:46:07;;;;;;;3.40;3.10;;;13.60;99.90;;;;;;4860285;29;20407;-75
2021/05/13 01:48:34;;;;;;;3.60;3.30;;;13.60;99.90;;;;;;4859844;29;20494;-76
2021/05/13 01:50:59;;;;;;;3.35;3.05;;;13.70;99.90;;;;;;4860302;29;20399;-75
2021/05/13 01:53:25;;;;;;;4.80;3.43;;;13.70;99.90;;;;;;4860913;29;20414;-75
2021/05/13 01:55:51;;;;;;;3.40;3.10;;;13.60;99.90;;;;;;4891907;29;20454;-75
2021/05/13 01:58:16;;;;;;;3.40;3.10;;;13.70;99.90;;;;;;4912556;29;20400;-78
2021/05/13 02:00:44;;;;;;;3.40;3.10;;;13.70;99.90;;;;;;4896674;29;20415;-78
2021/05/13 02:03:10;;;;;;;3.50;3.13;;;13.70;99.90;;;;;;4912840;29;20412;-79
2021/05/13 02:05:36;;;;;;;4.43;3.60;;;13.70;99.90;;;;;;4900181;29;20466;-75
2021/05/13 02:08:01;;;;;;;3.53;3.22;;;13.70;99.90;;;;;;4916614;29;20537;-72
2021/05/13 02:10:27;;;;;;;4.00;3.10;;;13.70;99.90;;;;;;4899932;29;20414;-76
2021/05/13 02:12:56;;;;;;;3.22;2.92;;;13.70;99.90;;;;;;4900970;29;20395;-77
2021/05/13 02:15:21;;;;;;;3.33;3.03;;;13.70;99.90;;;;;;4893692;29;20409;-83
2021/05/13 02:17:47;;;;;;;4.28;3.03;;;13.60;99.90;;;;;;4898396;29;20436;-79
2021/05/13 02:20:17;;;;;;;3.42;3.10;;;13.60;99.90;;;;;;4882377;29;20416;-77
2021/05/13 02:22:43;;;;;;;3.28;2.90;;;13.60;99.90;;;;;;4882550;29;20753;-75
2021/05/13 02:25:09;;;;;;;3.28;2.97;;;13.50;99.90;;;;;;4882005;29;20438;-73
2021/05/13 02:27:35;;;;;;;3.28;2.63;;;13.50;99.90;;;;;;4897206;29;20855;-75
2021/05/13 02:30:01;;;;;;;3.83;3.15;;;13.50;99.90;;;;;;4881880;29;20409;-78
2021/05/13 02:32:27;;;;;;;2.93;2.67;;;13.40;99.90;;;;;;4895156;29;20412;-75
2021/05/13 02:34:52;;;;;;;2.70;2.50;;;13.30;99.90;;;;;;4874498;29;20899;-77
2021/05/13 02:37:19;;;;;;;2.88;2.63;;;13.30;99.90;;;;;;4836685;29;20421;-75
2021/05/13 02:39:46;;;;;;;2.90;2.50;;;13.20;99.90;;;;;;4871268;29;20408;-77
2021/05/13 02:42:12;;;;;;;2.60;2.40;;;13.30;99.90;;;;;;4896276;29;20413;-80
2021/05/13 02:44:38;;;;;;;3.33;3.03;;;13.30;99.90;;;;;;4896401;29;20788;-74
2021/05/13 02:47:03;;;;;;;2.60;2.40;;;13.20;99.90;;;;;;4879951;29;21194;-75
2021/05/13 02:49:29;;;;;;;3.22;2.33;;;13.20;99.90;;;;;;4902862;29;20460;-75
2021/05/13 02:51:54;;;;;;;2.40;2.10;;;13.20;99.90;;;;;;4859186;29;20429;-77
2021/05/13 02:54:21;;;;;;;2.90;2.60;;;13.20;99.90;;;;;;4881070;29;20432;-76
2021/05/13 02:56:46;;;;;;;2.80;2.60;;;13.20;99.90;;;;;;4895033;29;20424;-78
2021/05/13 02:59:15;;;;;;;2.77;2.57;;;13.30;99.90;;;;;;4896372;29;20405;-76
2021/05/13 03:01:40;;;;;;;4.13;2.75;;;13.20;99.90;;;;;;4861538;29;20778;-73
2021/05/13 03:04:06;;;;;;;2.63;2.42;;;13.20;99.90;;;;;;4921102;29;20411;-75
2021/05/13 03:06:32;;;;;;;3.20;2.33;;;13.20;99.90;;;;;;4914907;29;20947;-79
2021/05/13 03:08:58;;;;;;;3.25;2.38;;;13.20;99.90;;;;;;4913619;29;20479;-75
2021/05/13 03:11:26;;;;;;;2.50;2.30;;;13.20;99.90;;;;;;4887189;29;20434;-76
2021/05/13 03:13:54;;;;;;;3.03;2.80;;;13.10;99.90;;;;;;4903408;29;20417;-75
2021/05/13 03:16:20;;;;;;;5.20;2.60;;;13.20;99.90;;;;;;4880610;29;20412;-76
2021/05/13 03:18:51;;;;;;;3.70;2.50;;;13.10;99.90;;;;;;4879058;29;21036;-77
2021/05/13 03:21:26;;;;;;;2.58;2.30;;;13.10;99.90;;;;;;4879722;29;20425;-76
2021/05/13 03:24:12;;;;;;;2.57;2.37;;;13.10;99.90;;;;;;4846342;29;20409;-75
2021/05/13 03:29:03;;;;;;;2.60;2.40;;;13.10;99.90;;;;;;4893862;29;20485;-74
2021/05/13 03:31:29;;;;;;;2.85;2.65;;;13.10;99.90;;;;;;4892729;29;20506;-74
2021/05/13 03:33:55;;;;;;;2.50;2.33;;;13.10;99.90;;;;;;4891172;29;20445;-80
2021/05/13 03:36:20;;;;;;;4.28;2.78;;;13.10;99.90;;;;;;4893904;29;20418;-78
2021/05/13 03:38:46;;;;;;;4.63;2.80;;;13.10;99.90;;;;;;4895497;29;20412;-78
2021/05/13 03:41:12;;;;;;;2.60;2.40;;;13.10;99.90;;;;;;4909092;29;20407;-75
2021/05/13 03:43:37;;;;;;;2.80;2.60;;;13.00;99.90;;;;;;4876115;29;20422;-76
2021/05/13 03:46:03;;;;;;;3.42;3.13;;;13.00;99.90;;;;;;4869922;29;20465;-73
2021/05/13 03:48:29;;;;;;;2.70;2.50;;;13.00;99.90;;;;;;4893484;29;20417;-75
2021/05/13 03:50:54;;;;;;;3.65;2.95;;;13.00;99.90;;;;;;4894912;29;20406;-75
2021/05/13 03:53:20;;;;;;;2.70;2.50;;;12.80;99.90;;;;;;4893499;29;20481;-74
2021/05/13 03:55:50;;;;;;;2.95;2.67;;;12.80;99.90;;;;;;4893764;29;20410;-76
2021/05/13 03:58:16;;;;;;;3.30;2.70;;;12.90;99.90;;;;;;4898754;29;20489;-72
2021/05/13 04:01:00;;;;;;;3.25;2.97;;;12.80;99.90;;;;;;4890725;29;20841;-77
2021/05/13 04:03:25;;;;;;;2.92;2.53;;;12.80;99.90;;;;;;4909001;29;20409;-76
2021/05/13 04:05:51;;;;;;;2.83;2.60;;;12.80;99.90;;;;;;4909760;29;20444;-75
2021/05/13 04:08:17;;;;;;;3.10;2.80;;;12.80;99.90;;;;;;4910921;29;20429;-74
2021/05/13 04:10:42;;;;;;;2.85;2.65;;;12.80;99.90;;;;;;4878103;29;20397;-75
2021/05/13 04:13:10;;;;;;;2.90;2.70;;;12.90;99.90;;;;;;4893986;29;20404;-75
2021/05/13 04:15:36;;;;;;;3.60;3.30;;;12.90;99.90;;;;;;4892346;29;20489;-76
2021/05/13 04:18:01;;;;;;;3.40;3.10;;;12.80;99.90;;;;;;4894174;29;20496;-77
2021/05/13 04:20:27;;;;;;;4.70;3.55;;;12.90;99.90;;;;;;4892750;29;20413;-74
2021/05/13 04:22:53;;;;;;;3.10;2.90;;;12.90;99.90;;;;;;4875297;29;20414;-74
2021/05/13 04:25:19;;;;;;;3.10;2.90;;;12.90;99.90;;;;;;4884687;29;20488;-74
2021/05/13 04:27:44;;;;;;;3.25;2.95;;;12.90;99.90;;;;;;4875074;29;20423;-75
2021/05/13 04:30:10;;;;;;;3.80;3.00;;;12.90;99.90;;;;;;4859869;29;20470;-75
2021/05/13 04:32:36;;;;;;;3.50;3.20;;;12.90;99.90;;;;;;4891029;29;20825;-76
2021/05/13 04:35:02;;;;;;;3.30;3.00;;;13.00;99.90;;;;;;4874921;29;20401;-74
2021/05/13 04:37:28;;;;;;;3.50;3.20;;;13.00;99.90;;;;;;4875188;29;20469;-75
2021/05/13 04:39:53;;;;;;;3.83;3.20;;;12.90;99.90;;;;;;4878211;29;20917;-75
2021/05/13 04:42:19;;;;;;;3.60;3.30;;;12.90;99.90;;;;;;4886585;29;20454;-75
2021/05/13 04:44:45;;;;;;;5.15;3.70;;;12.80;99.90;;;;;;4878266;29;20419;-78
2021/05/13 04:49:56;;;;;;;4.67;4.27;;;12.80;99.90;;;;;;4907348;29;20412;-77
2021/05/13 04:52:24;;;;;;;4.32;3.92;;;12.70;99.90;;;;;;4860184;29;20473;-75
2021/05/13 04:54:51;;;;;;;5.63;4.95;;;12.80;99.90;;;;;;4878340;29;20436;-74
2021/05/13 04:57:17;;;;;;;5.40;4.90;;;12.70;99.90;;;;;;4874400;29;20425;-76
2021/05/13 04:59:43;;;;;;;7.88;5.15;;;12.70;99.90;;;;;;4876834;29;20414;-75
2021/05/13 05:02:09;;;;;;;4.93;4.53;;;12.50;99.90;;;;;;4886039;29;20506;-75
2021/05/13 05:04:35;;;;;;;4.97;4.57;;;12.60;99.90;;;;;;4870055;29;20971;-75
2021/05/13 05:07:00;;;;;;;5.40;4.83;;;12.60;99.90;;;;;;4893861;29;20420;-75
2021/05/13 05:09:26;;;;;;;4.60;4.20;;;12.80;99.90;;;;;;4900943;29;21995;-73
2021/05/13 05:11:52;;;;;;;5.93;5.10;;;12.70;99.90;;;;;;4878474;29;20401;-78
2021/05/13 05:14:18;;;;;;;5.40;4.45;;;12.70;99.90;;;;;;4873798;29;20414;-77
2021/05/13 05:16:43;;;;;;;5.85;4.85;;;12.70;99.90;;;;;;4860193;29;20504;-76
2021/05/13 05:19:09;;;;;;;5.37;4.30;;;12.80;99.90;;;;;;4877145;29;21011;-74
2021/05/13 05:21:35;;;;;;;4.60;4.05;;;12.80;99.90;;;;;;4870673;29;20429;-76
2021/05/13 05:24:00;;;;;;;6.37;4.67;;;12.80;99.90;;;;;;4875115;29;20422;-75
2021/05/13 05:26:26;;;;;;;4.30;3.90;;;12.80;99.90;;;;;;4860715;29;20480;-77
2021/05/13 05:28:52;;;;;;;4.87;4.37;;;12.80;99.90;;;;;;4878909;29;20408;-77
2021/05/13 05:31:18;;;;;;;5.05;4.43;;;12.80;99.90;;;;;;4892240;29;20921;-75
2021/05/13 05:33:43;;;;;;;4.20;3.80;;;12.80;99.90;;;;;;4892843;29;20424;-75
2021/05/13 05:36:09;;;;;;;5.43;4.18;;;12.70;99.90;;;;;;4868101;29;20447;-76
2021/05/13 05:38:34;;;;;;;5.03;4.53;;;12.80;99.90;;;;;;4891728;29;20456;-73
2021/05/13 05:41:00;;;;;;;5.22;4.72;;;12.80;99.90;;;;;;4899181;29;20427;-79
2021/05/13 05:43:26;;;;;;;5.80;4.80;;;12.70;99.90;;;;;;4881519;29;20392;-76
2021/05/13 05:45:51;;;;;;;4.43;4.03;;;12.70;99.90;;;;;;4894393;29;20410;-75
2021/05/13 05:48:17;;;;;;;5.47;4.50;;;12.80;99.90;;;;;;4897062;29;20412;-76
2021/05/13 05:50:43;;;;;;;5.15;4.68;;;12.80;99.90;;;;;;4880305;29;20407;-75
2021/05/13 05:53:09;;;;;;;5.28;4.75;;;12.80;99.90;;;;;;4878140;29;20394;-74
2021/05/13 05:55:35;;;;;;;4.95;4.55;;;12.80;99.90;;;;;;4864272;29;20416;-75
2021/05/13 05:58:01;;;;;;;5.40;4.90;;;12.70;99.90;;;;;;4880743;29;20415;-77
2021/05/13 06:00:27;;;;;;;4.90;4.28;;;12.80;99.90;;;;;;4876245;29;20506;-75
2021/05/13 06:02:52;;;;;;;5.28;4.88;;;12.80;99.90;;;;;;4896887;29;20397;-74
2021/05/13 06:05:18;;;;;;;5.17;4.73;;;12.90;99.90;;;;;;4896489;29;20401;-76
2021/05/13 06:07:44;;;;;;;5.60;4.75;;;12.80;99.90;;;;;;4877998;29;20438;-75
2021/05/13 06:10:10;;;;;;;5.47;5.00;;;12.80;99.90;;;;;;4896315;29;20417;-75
2021/05/13 06:12:36;;;;;;;5.10;4.60;;;12.80;99.90;;;;;;4881228;29;20518;-76
2021/05/13 06:15:04;;;;;;;5.22;4.68;;;12.80;99.90;;;;;;4880860;29;20428;-75
2021/05/13 06:17:30;;;;;;;5.10;4.63;;;12.90;99.90;;;;;;4881588;29;20397;-75
2021/05/13 06:20:00;;;;;;;5.25;4.85;;;12.90;99.90;;;;;;4877066;29;21212;-76
2021/05/13 06:22:27;;;;;;;5.03;4.57;;;13.00;99.90;;;;;;4892858;29;20420;-76
2021/05/13 06:24:52;;;;;;;5.80;5.10;;;12.90;99.90;;;;;;4895189;29;20413;-75
2021/05/13 06:27:18;;;;;;;4.93;4.53;;;12.90;99.90;;;;;;4896548;29;20483;-74
2021/05/13 06:29:46;;;;;;;5.22;4.25;;;12.90;99.90;;;;;;4894225;29;20427;-74
2021/05/13 06:32:11;;;;;;;5.22;4.53;;;12.90;99.90;;;;;;4874036;29;20489;-73
2021/05/13 06:34:37;;;;;;;4.23;3.93;;;12.90;99.90;;;;;;4865535;29;20882;-74
2021/05/13 06:37:03;;;;;;;5.47;4.57;;;12.80;99.90;;;;;;4891597;29;20427;-74
2021/05/13 06:39:32;;;;;;;5.15;4.65;;;12.70;99.90;;;;;;4892332;29;20611;-73
2021/05/13 06:41:58;;;;;;;5.30;4.80;;;12.80;99.90;;;;;;4862705;29;20415;-74
2021/05/13 06:44:24;;;;;;;5.18;4.68;;;12.80;99.90;;;;;;4879193;29;20420;-73
2021/05/13 06:46:51;;;;;;;4.73;4.30;;;12.90;99.90;;;;;;4892964;29;20424;-77
2021/05/13 06:49:16;;;;;;;5.80;5.03;;;12.90;99.90;;;;;;4896828;29;20820;-75
2021/05/13 06:51:42;;;;;;;5.97;5.37;;;12.90;99.90;;;;;;4875418;29;20455;-75
2021/05/13 06:54:08;;;;;;;5.85;5.35;;;12.90;99.90;;;;;;4908646;29;20405;-76
2021/05/13 06:56:34;;;;;;;5.57;4.30;;;12.90;99.90;;;;;;4863954;29;20448;-76
2021/05/13 06:58:59;;;;;;;6.70;5.10;;;12.90;99.90;;;;;;4893869;29;20460;-74
2021/05/13 07:01:26;;;;;;;4.97;4.53;;;13.00;99.90;;;;;;4878594;29;20405;-75
2021/05/13 07:03:52;;;;;;;5.95;5.07;;;13.10;99.90;;;;;;4894953;29;20409;-74
2021/05/13 07:06:17;;;;;;;4.97;4.47;;;13.10;99.90;;;;;;4883224;29;20401;-74
2021/05/13 07:08:43;;;;;;;5.13;4.63;;;13.30;99.90;;;;;;4893738;29;20962;-72
2021/05/13 07:11:09;;;;;;;4.57;4.18;;;13.10;99.90;;;;;;4879117;29;20443;-74
2021/05/13 07:13:36;;;;;;;5.03;4.53;;;13.20;99.90;;;;;;4878944;29;20409;-74
2021/05/13 07:16:02;;;;;;;4.70;4.30;;;13.10;99.90;;;;;;4881981;29;20422;-75
2021/05/13 07:18:28;;;;;;;4.28;3.88;;;13.10;99.90;;;;;;4864504;29;20411;-74
2021/05/13 07:20:53;;;;;;;4.70;4.30;;;13.20;99.90;;;;;;4878056;29;20466;-75
2021/05/13 07:23:19;;;;;;;4.57;4.17;;;13.10;99.90;;;;;;4879954;29;20414;-74
2021/05/13 07:25:46;;;;;;;4.78;4.03;;;13.10;99.90;;;;;;4854428;29;20416;-75
2021/05/13 07:28:12;;;;;;;4.07;3.78;;;13.20;99.90;;;;;;4878860;29;20426;-75
2021/05/13 07:30:38;;;;;;;4.25;3.03;;;13.00;99.90;;;;;;4861900;29;20566;-73
2021/05/13 07:33:04;;;;;;;3.60;3.30;;;12.90;99.90;;;;;;4878331;29;20417;-75
2021/05/13 07:35:30;;;;;;;3.47;3.17;;;13.00;99.90;;;;;;4869755;29;20406;-77
2021/05/13 07:37:56;;;;;;;3.10;2.90;;;12.90;99.90;;;;;;4883581;29;20397;-75
2021/05/13 07:40:23;;;;;;;3.30;3.00;;;13.00;99.90;;;;;;4895028;29;20913;-79
2021/05/13 07:42:49;;;;;;;2.72;2.53;;;12.90;99.90;;;;;;4893549;29;20421;-75
2021/05/13 07:45:16;;;;;;;2.60;2.40;;;12.90;99.90;;;;;;4859606;29;20409;-74
2021/05/13 07:47:42;;;;;;;2.80;2.60;;;13.00;99.90;;;;;;4879997;29;20411;-75
2021/05/13 07:50:09;;;;;;;2.63;2.42;;;12.90;99.90;;;;;;4892904;29;21617;-74
2021/05/13 07:52:34;;;;;;;2.20;2.10;;;12.90;99.90;;;;;;4887660;29;20519;-76
2021/05/13 07:55:00;;;;;;;2.60;2.40;;;12.90;99.90;;;;;;4877843;29;20496;-76
2021/05/13 07:57:26;;;;;;;2.00;1.90;;;12.90;99.90;;;;;;4875279;29;20421;-75
2021/05/13 07:59:52;;;;;;;2.53;2.33;;;12.90;99.90;;;;;;4894325;29;20453;-76
2021/05/13 08:02:17;;;;;;;2.25;2.05;;;13.00;99.90;;;;;;4881391;29;20458;-74
2021/05/13 08:04:43;;;;;;;2.50;2.30;;;13.00;99.90;;;;;;4896902;29;20398;-75
2021/05/13 08:07:09;;;;;;;2.43;2.23;;;13.00;99.90;;;;;;4874297;29;20469;-76
2021/05/13 08:09:35;;;;;;;2.13;1.98;;;13.00;99.90;;;;;;4861935;29;20559;-78
2021/05/13 08:12:00;;;;;;;2.93;2.50;;;13.00;99.90;;;;;;4876242;29;20411;-77
2021/05/13 08:14:26;;;;;;;2.50;2.30;;;12.90;99.90;;;;;;4854630;29;20488;-82
2021/05/13 08:16:52;;;;;;;2.10;1.90;;;12.90;99.90;;;;;;4895151;29;20417;-79
2021/05/13 08:19:17;;;;;;;2.97;2.15;;;12.90;99.90;;;;;;4871141;29;20928;-76
2021/05/13 08:21:43;;;;;;;3.13;2.50;;;12.90;99.90;;;;;;4891450;29;20403;-75
2021/05/13 08:24:09;;;;;;;2.38;2.17;;;12.80;99.90;;;;;;4884868;29;20426;-77
2021/05/13 08:26:34;;;;;;;7.10;6.40;;;12.80;99.90;;;;;;4862287;29;20875;-79
2021/05/13 08:29:00;;;;;;;2.75;2.55;;;12.70;99.90;;;;;;4894046;29;20442;-76
2021/05/13 08:31:26;;;;;;;2.80;2.60;;;12.80;99.90;;;;;;4876466;29;20393;-76
2021/05/13 08:33:52;;;;;;;2.93;2.37;;;12.80;99.90;;;;;;4878126;29;20433;-77
2021/05/13 08:36:17;;;;;;;2.40;2.17;;;12.80;99.90;;;;;;4844381;29;20461;-80
2021/05/13 08:38:43;;;;;;;2.10;2.00;;;12.80;99.90;;;;;;4877851;29;20411;-78
2021/05/13 08:41:10;;;;;;;2.50;2.22;;;12.90;99.90;;;;;;4876465;29;20415;-78
2021/05/13 08:43:36;;;;;;;2.10;2.00;;;12.90;99.90;;;;;;4879150;29;21075;-79
2021/05/13 08:46:01;;;;;;;2.45;2.25;;;12.90;99.90;;;;;;4885615;29;20402;-76
2021/05/13 08:48:28;;;;;;;1.93;1.83;;;12.80;99.90;;;;;;4863139;29;20418;-77
2021/05/13 08:50:55;;;;;;;2.47;2.20;;;12.80;99.90;;;;;;4877942;29;20405;-75
2021/05/13 08:53:21;;;;;;;2.40;2.00;;;12.90;99.90;;;;;;4885535;29;20410;-74
2021/05/13 08:55:46;;;;;;;2.43;2.23;;;12.70;99.90;;;;;;4867423;29;21289;-73
2021/05/13 08:58:12;;;;;;;2.15;1.95;;;12.80;99.90;;;;;;4876122;29;20450;-76
2021/05/13 09:00:38;;;;;;;1.77;1.67;;;12.80;99.90;;;;;;4883898;29;20402;-75
2021/05/13 09:03:04;;;;;;;2.00;1.90;;;12.70;99.90;;;;;;4878226;29;20413;-74
2021/05/13 09:05:29;;;;;;;1.98;1.75;;;12.80;99.90;;;;;;4889124;29;20430;-79
2021/05/13 09:07:55;;;;;;;1.80;1.60;;;12.80;99.90;;;;;;4875350;29;21291;-80
2021/05/13 09:10:22;;;;;;;1.70;1.60;;;12.90;99.90;;;;;;4892512;29;20401;-80
2021/05/13 09:12:50;;;;;;;3.17;1.60;;;12.80;99.90;;;;;;4874732;29;20486;-77
2021/05/13 09:15:18;;;;;;;2.97;2.58;;;12.80;99.90;;;;;;4879156;29;20410;-79
2021/05/13 09:17:47;;;;;;;2.25;1.88;;;12.80;99.90;;;;;;4866296;29;20982;-81
2021/05/13 09:20:26;;;;;;;1.60;1.50;;;12.80;99.90;;;;;;4877540;29;20431;-77
2021/05/13 09:22:52;;;;;;;1.47;1.37;;;12.80;99.90;;;;;;4885111;29;21726;-76
2021/05/13 09:25:18;;;;;;;1.42;1.33;;;12.70;99.90;;;;;;4868644;29;20463;-79
2021/05/13 09:27:46;;;;;;;1.30;1.20;;;12.70;99.90;;;;;;4875394;29;20401;-76
2021/05/13 09:30:17;;;;;;;1.33;1.23;;;12.70;99.90;;;;;;4877231;29;20421;-79
2021/05/13 09:32:56;;;;;;;2.20;1.40;;;12.70;99.90;;;;;;4889246;29;20427;-75
2021/05/13 09:35:23;;;;;;;1.10;1.10;;;12.70;99.90;;;;;;4857996;29;20423;-77
2021/05/13 09:37:54;;;;;;;1.10;1.10;;;12.80;99.90;;;;;;4906505;29;21140;-75
2021/05/13 09:40:37;;;;;;;1.40;1.30;;;12.80;99.90;;;;;;4891815;29;20916;-76
2021/05/13 09:43:21;;;;;;;0.93;0.93;;;12.70;99.90;;;;;;4874034;29;20428;-78
2021/05/13 09:45:53;;;;;;;0.90;0.90;;;12.80;99.90;;;;;;4863667;29;20424;-77
2021/05/13 09:48:39;;;;;;;1.13;1.08;;;12.80;99.90;;;;;;4872348;29;20424;-76
2021/05/13 09:51:25;;;;;;;1.10;1.10;;;12.80;99.90;;;;;;4886149;29;20440;-75
2021/05/13 09:54:04;;;;;;;1.55;1.17;;;12.80;99.90;;;;;;4876031;29;20480;-77
2021/05/13 09:56:30;;;;;;;1.40;1.30;;;12.80;99.90;;;;;;4890477;29;20401;-79
2021/05/13 09:58:56;;;;;;;1.37;1.27;;;12.70;99.90;;;;;;4883617;29;21148;-80
2021/05/13 10:01:22;;;;;;;1.30;1.20;;;12.70;99.90;;;;;;4874835;29;20481;-79
2021/05/13 10:03:48;;;;;;;1.25;0.98;;;12.60;99.90;;;;;;4871980;29;20505;-74
2021/05/13 10:06:14;;;;;;;0.82;0.82;;;12.60;99.90;;;;;;4872392;29;20913;-74
2021/05/13 10:08:43;;;;;;;0.80;0.80;;;12.70;99.90;;;;;;4873316;29;20422;-75
2021/05/13 10:11:09;;;;;;;0.80;0.80;;;12.70;99.90;;;;;;4837070;29;20422;-75
2021/05/13 10:13:35;;;;;;;0.70;0.70;;;12.60;99.90;;;;;;4855023;29;20421;-76
2021/05/13 10:16:01;;;;;;;0.90;0.90;;;12.60;99.90;;;;;;4869393;29;20480;-74
2021/05/13 10:18:37;;;;;;;0.90;0.80;;;12.60;99.90;;;;;;4875664;29;20466;-76
2021/05/13 10:21:05;;;;;;;0.90;0.73;;;12.60;99.90;;;;;;4853089;29;20453;-74
2021/05/13 10:23:32;;;;;;;0.68;0.68;;;12.50;99.90;;;;;;4888588;29;20517;-76
2021/05/13 10:25:58;;;;;;;0.80;0.80;;;12.60;99.90;;;;;;4858897;29;20819;-74
2021/05/13 10:28:31;;;;;;;0.80;0.80;;;12.70;99.90;;;;;;4877569;29;20418;-75
2021/05/13 10:31:02;;;;;;;0.80;0.80;;;12.60;99.90;;;;;;4881237;29;20504;-75
2021/05/13 10:33:47;;;;;;;0.82;0.80;;;12.60;99.90;;;;;;4879199;29;20809;-77
2021/05/13 10:36:16;;;;;;;0.83;0.83;;;12.60;99.90;;;;;;4879860;29;20784;-76
2021/05/13 10:38:47;;;;;;;0.80;0.80;;;12.70;99.90;;;;;;4878986;29;20429;-75
2021/05/13 10:41:28;;;;;;;0.90;0.90;;;12.60;99.90;;;;;;4881729;29;20408;-75
2021/05/13 10:43:55;;;;;;;0.90;0.90;;;12.60;99.90;;;;;;4883862;29;20963;-74
2021/05/13 10:46:27;;;;;;;0.98;0.98;;;12.60;99.90;;;;;;4875438;29;20419;-77
2021/05/13 10:48:52;;;;;;;1.00;1.00;;;12.60;99.90;;;;;;4894434;29;20440;-74
2021/05/13 10:51:25;;;;;;;1.00;1.00;;;12.60;99.90;;;;;;4891139;29;20489;-77
2021/05/13 10:53:51;;;;;;;1.00;1.00;;;12.60;99.90;;;;;;4875868;29;20989;-75
2021/05/13 10:56:27;;;;;;;1.00;1.00;;;12.70;99.90;;;;;;4874063;29;20555;-73
2021/05/13 10:59:04;;;;;;;3.40;3.07;;;12.70;99.90;;;;;;4909155;29;20423;-72
2021/05/13 11:01:44;;;;;;;6.75;3.00;;;12.80;99.90;;;;;;4878644;29;20787;-75
2021/05/13 11:04:25;;;;;;;0.95;0.95;;;12.80;99.90;;;;;;4894888;29;20991;-78
2021/05/13 11:06:51;;;;;;;0.98;0.98;;;12.90;99.90;;;;;;4868700;29;20465;-72
2021/05/13 11:09:44;;;;;;;0.80;0.80;;;12.90;99.90;;;;;;4910948;29;20504;-77
2021/05/13 11:12:16;;;;;;;0.93;0.93;;;12.90;99.90;;;;;;4890204;29;20478;-72
2021/05/13 11:17:46;;;;;;;1.25;1.10;;;12.90;99.90;;;;;;4911348;29;20413;-74
2021/05/13 11:20:18;;;;;;;0.90;0.90;;;12.90;99.90;;;;;;4912600;29;20413;-74
2021/05/13 11:22:58;;;;;;;0.90;0.90;;;12.90;99.90;;;;;;4904991;29;20777;-74
2021/05/13 11:25:24;;;;;;;1.00;1.00;;;12.80;99.90;;;;;;4897496;29;20416;-77
2021/05/13 11:27:50;;;;;;;1.00;1.00;;;12.80;99.90;;;;;;4896948;29;20912;-73
2021/05/13 11:30:16;;;;;;;1.02;1.02;;;12.80;99.90;;;;;;4892200;29;20421;-77
2021/05/13 11:32:42;;;;;;;1.25;1.15;;;12.80;99.90;;;;;;4851254;29;20461;-75
2021/05/13 11:35:08;;;;;;;1.00;1.00;;;12.60;99.90;;;;;;4876326;29;20440;-73
2021/05/13 11:37:39;;;;;;;1.02;1.02;;;12.70;99.90;;;;;;4867078;29;20450;-75
2021/05/13 11:40:24;;;;;;;1.00;1.00;;;12.70;99.90;;;;;;4860180;29;20417;-73
2021/05/13 11:42:50;;;;;;;1.00;1.00;;;12.80;99.90;;;;;;4859003;29;20521;-75
2021/05/13 11:45:21;;;;;;;1.17;1.10;;;12.80;99.90;;;;;;4892501;29;20405;-75
2021/05/13 11:47:47;;;;;;;1.10;1.10;;;12.90;99.90;;;;;;4893542;29;20477;-73
2021/05/13 11:50:29;;;;;;;1.10;1.10;;;12.90;99.90;;;;;;4903633;29;20473;-72
2021/05/13 11:53:12;;;;;;;1.20;1.20;;;12.90;99.90;;;;;;4874846;29;20442;-73
2021/05/13 11:55:40;;;;;;;3.35;1.30;;;12.90;99.90;;;;;;4884553;29;20966;-76
2021/05/13 11:58:09;;;;;;;1.10;1.10;;;12.90;99.90;;;;;;4909119;29;20465;-72
2021/05/13 12:00:36;;;;;;;1.40;1.30;;;12.90;99.90;;;;;;4870785;29;20928;-75
2021/05/13 12:03:08;;;;;;;1.50;1.40;;;12.70;99.90;;;;;;4893245;29;20477;-74
2021/05/13 12:05:45;;;;;;;1.38;1.27;;;12.70;99.90;;;;;;4889633;29;20410;-73
2021/05/13 12:08:14;;;;;;;1.73;1.63;;;12.70;99.90;;;;;;4862081;29;20908;-72
2021/05/13 12:10:42;;;;;;;1.80;1.70;;;12.60;99.90;;;;;;4874463;29;20395;-73
2021/05/13 12:13:08;;;;;;;2.40;1.42;;;12.60;99.90;;;;;;4889406;29;20427;-72
2021/05/13 12:15:33;;;;;;;1.70;1.60;;;12.70;99.90;;;;;;4873532;29;20389;-74
2021/05/13 12:17:59;;;;;;;2.30;1.50;;;12.70;99.90;;;;;;4892054;29;20393;-73
2021/05/13 12:20:24;;;;;;;1.55;1.45;;;12.70;99.90;;;;;;4874723;29;20852;-72
2021/05/13 12:22:50;;;;;;;1.60;1.50;;;12.70;99.90;;;;;;4876640;29;20405;-71
2021/05/13 12:25:16;;;;;;;1.50;1.40;;;12.80;99.90;;;;;;4889291;29;20413;-72
2021/05/13 12:27:42;;;;;;;1.50;1.40;;;12.80;99.90;;;;;;4884824;29;20405;-76
2021/05/13 12:30:08;;;;;;;1.60;1.50;;;12.80;99.90;;;;;;4892998;29;20874;-74
2021/05/13 12:32:34;;;;;;;1.70;1.60;;;12.90;99.90;;;;;;4878057;29;20990;-74
2021/05/13 12:35:00;;;;;;;1.77;1.67;;;12.80;99.90;;;;;;4877190;29;20398;-72
2021/05/13 12:37:26;;;;;;;1.63;1.52;;;12.80;99.90;;;;;;4877102;29;20462;-73
2021/05/13 12:39:53;;;;;;;1.60;1.50;;;12.70;99.90;;;;;;4875403;29;20421;-78
2021/05/13 12:42:37;;;;;;;2.70;1.60;;;12.70;99.90;;;;;;4871332;29;20405;-78
2021/05/13 12:45:16;;;;;;;1.70;1.60;;;12.80;99.90;;;;;;4874867;29;20429;-73
2021/05/13 12:47:42;;;;;;;1.80;1.70;;;12.90;99.90;;;;;;4890241;29;20962;-76
2021/05/13 12:50:08;;;;;;;1.50;1.40;;;12.80;99.90;;;;;;4876444;29;20504;-73
2021/05/13 12:52:34;;;;;;;1.77;1.67;;;12.80;99.90;;;;;;4864501;29;20827;-76
2021/05/13 12:55:36;;;;;;;1.60;1.50;;;12.80;99.90;;;;;;4892363;29;20405;-79
2021/05/13 12:58:09;;;;;;;1.50;1.40;;;12.80;99.90;;;;;;4847622;29;20411;-75
2021/05/13 13:00:35;;;;;;;1.40;1.30;;;12.80;99.90;;;;;;4898438;29;20409;-77
2021/05/13 13:03:06;;;;;;;1.70;1.60;;;12.90;99.90;;;;;;4894417;29;20417;-76